Audrey — PD9331 — position and weather

sailwx.info

Track history (hours):
 
Tides and Currents Weather Stations Pressure Air Temp Water Temp Dewpoint Dewpoint Depression Visibility Wind Speed Wind Dir Waves Ship Positions

Audrey

Last reported at 2017-Jan-18 19:33 UTC. Time now 2017-Jan-18 20:12 UTC.
Position N 52°24' E 004°52'.

Length 85 m; draft 2 m.

Type: Wing in ground effect craft. MMSI: 244660106.

Date/timePositionNaut miles runAvg speedWind from/ knotsBaromVisibWave heightAir tempDewpointWater temp
2017-Jan-18 19:33N 52°24' E 004°52'0 0.0
2017-Jan-18 18:33N 52°24' E 004°52'0 0.0
2017-Jan-18 17:33N 52°24' E 004°52'0 0.0
2017-Jan-18 16:33N 52°24' E 004°52'0 0.0
2017-Jan-18 15:33N 52°24' E 004°52'0 0.0
2017-Jan-18 14:33N 52°24' E 004°52'3 2.7
2017-Jan-18 13:33N 52°23' E 004°56'0 0.2
2017-Jan-18 12:33N 52°23' E 004°56'0 0.0
2017-Jan-18 11:33N 52°23' E 004°56'1 1.4
2017-Jan-18 10:34N 52°22' E 004°58'8 8.2
2017-Jan-18 09:33N 52°14' E 005°00'7 7.4
2017-Jan-18 08:33N 52°07' E 005°05'6 5.9
2017-Jan-18 07:33N 52°01' E 005°07'6 5.6
2017-Jan-18 06:34N 51°58' E 004°59'8 7.5
2017-Jan-18 05:32N 51°55' E 004°47'6 6.5
2017-Jan-18 04:33N 51°52' E 004°38'2 1.8
2017-Jan-18 03:33N 51°51' E 004°40'0 0.0
2017-Jan-18 02:33N 51°51' E 004°40'0 0.0
2017-Jan-18 01:33N 51°51' E 004°40'0 0.0
2017-Jan-18 00:33N 51°51' E 004°40'0 0.0
2017-Jan-17 23:33N 51°51' E 004°40'0 0.0
2017-Jan-17 22:33N 51°51' E 004°40'0 0.0
2017-Jan-17 21:33N 51°51' E 004°40'0 0.0
2017-Jan-17 20:33N 51°51' E 004°40'0 0.0
2017-Jan-17 19:33N 51°51' E 004°40'0 0.0
2017-Jan-17 18:33N 51°51' E 004°40'0 0.0
2017-Jan-17 17:33N 51°51' E 004°40'0 0.2
2017-Jan-17 16:33N 51°51' E 004°40'9 8.6
2017-Jan-17 15:33N 51°49' E 004°53'3 2.8
2017-Jan-17 14:31N 51°50' E 004°58'0 0.1
2017-Jan-17 13:33N 51°50' E 004°58'8 8.0
2017-Jan-17 12:33N 51°49' E 005°11'1 0.1
2017-Jan-16 14:09N 51°49' E 005°13'0 0.0
2017-Jan-16 08:33N 51°49' E 005°13'0 0.0
2017-Jan-16 07:33N 51°49' E 005°13'0 0.0
2017-Jan-16 06:33N 51°49' E 005°13'0 0.0
2017-Jan-16 05:32N 51°49' E 005°13'0 0.0
2017-Jan-16 02:32N 51°49' E 005°13'0 0.0
2017-Jan-16 01:32N 51°49' E 005°13'0 0.0
2017-Jan-16 00:29N 51°49' E 005°13'0 0.0
2017-Jan-15 23:29N 51°49' E 005°13'0 0.0
2017-Jan-15 21:20N 51°49' E 005°13'0 0.0
2017-Jan-15 20:33N 51°49' E 005°13'0 0.0
2017-Jan-15 17:06N 51°49' E 005°13'0 0.0
2017-Jan-15 16:32N 51°49' E 005°13'0 0.0
2017-Jan-15 15:33N 51°49' E 005°13'0 0.0
2017-Jan-15 14:32N 51°49' E 005°13'0 0.0
2017-Jan-15 13:13N 51°49' E 005°13'0 0.0
2017-Jan-15 12:31N 51°49' E 005°13'0 0.0
2017-Jan-15 11:31N 51°49' E 005°13'0 0.0
2017-Jan-15 10:32N 51°49' E 005°13'0 0.0
2017-Jan-15 09:29N 51°49' E 005°13'0 0.0
2017-Jan-15 08:31N 51°49' E 005°13'0 0.0
2017-Jan-15 07:33N 51°49' E 005°13'0 0.0
2017-Jan-15 06:33N 51°49' E 005°13'0 0.0
2017-Jan-15 05:33N 51°49' E 005°13'0 0.0
2017-Jan-15 04:31N 51°49' E 005°13'0 0.0
2017-Jan-15 03:27N 51°49' E 005°13'0 0.0
2017-Jan-15 02:33N 51°49' E 005°13'0 0.0
2017-Jan-15 01:16N 51°49' E 005°13'0 0.0
2017-Jan-15 00:22N 51°49' E 005°13'0 0.0
2017-Jan-14 21:30N 51°49' E 005°13'0 0.0
2017-Jan-14 20:18N 51°49' E 005°13'0 0.0
2017-Jan-14 19:31N 51°49' E 005°13'0 0.0
2017-Jan-14 18:33N 51°49' E 005°13'0 0.0
2017-Jan-14 17:30N 51°49' E 005°13'0 0.0
2017-Jan-14 15:31N 51°49' E 005°13'0 0.0
2017-Jan-14 14:32N 51°49' E 005°13'4 4.0
2017-Jan-14 13:33N 51°49' E 005°20'9 8.9
2017-Jan-14 12:32N 51°54' E 005°32'10 9.7
2017-Jan-14 11:33N 51°53' E 005°47'7 7.2
2017-Jan-14 10:33N 51°52' E 005°59'8 8.1
2017-Jan-14 09:33N 51°50' E 006°12'8 7.9
2017-Jan-14 08:33N 51°45' E 006°22'7 6.9
2017-Jan-14 07:33N 51°40' E 006°29'7 6.6
2017-Jan-14 06:29N 51°34' E 006°36'43 2.0
2017-Jan-13 09:31N 50°54' E 006°59'5 4.8
2017-Jan-13 08:33N 50°49' E 007°01'9 8.3
2017-Jan-13 07:26N 50°42' E 007°10'  
Track history (hours):
 
Tides and Currents Weather Stations Pressure Air Temp Water Temp Dewpoint Dewpoint Depression Visibility Wind Speed Wind Dir Waves Ship Positions

Audrey

Last reported at 2017-Jan-18 19:33 UTC. Time now 2017-Jan-18 20:12 UTC.
Position N 52°24' E 004°52'.

Length 85 m; draft 2 m.

Type: Wing in ground effect craft. MMSI: 244660106.

Date/timePositionNaut miles runAvg speedWind from/ knotsBaromVisibWave heightAir tempDewpointWater temp
2017-Jan-18 19:33N 52°24' E 004°52'0 0.0
2017-Jan-18 18:33N 52°24' E 004°52'0 0.0
2017-Jan-18 17:33N 52°24' E 004°52'0 0.0
2017-Jan-18 16:33N 52°24' E 004°52'0 0.0
2017-Jan-18 15:33N 52°24' E 004°52'0 0.0
2017-Jan-18 14:33N 52°24' E 004°52'3 2.7
2017-Jan-18 13:33N 52°23' E 004°56'0 0.2
2017-Jan-18 12:33N 52°23' E 004°56'0 0.0
2017-Jan-18 11:33N 52°23' E 004°56'1 1.4
2017-Jan-18 10:34N 52°22' E 004°58'8 8.2
2017-Jan-18 09:33N 52°14' E 005°00'7 7.4
2017-Jan-18 08:33N 52°07' E 005°05'6 5.9
2017-Jan-18 07:33N 52°01' E 005°07'6 5.6
2017-Jan-18 06:34N 51°58' E 004°59'8 7.5
2017-Jan-18 05:32N 51°55' E 004°47'6 6.5
2017-Jan-18 04:33N 51°52' E 004°38'2 1.8
2017-Jan-18 03:33N 51°51' E 004°40'0 0.0
2017-Jan-18 02:33N 51°51' E 004°40'0 0.0
2017-Jan-18 01:33N 51°51' E 004°40'0 0.0
2017-Jan-18 00:33N 51°51' E 004°40'0 0.0
2017-Jan-17 23:33N 51°51' E 004°40'0 0.0
2017-Jan-17 22:33N 51°51' E 004°40'0 0.0
2017-Jan-17 21:33N 51°51' E 004°40'0 0.0
2017-Jan-17 20:33N 51°51' E 004°40'0 0.0
2017-Jan-17 19:33N 51°51' E 004°40'0 0.0
2017-Jan-17 18:33N 51°51' E 004°40'0 0.0
2017-Jan-17 17:33N 51°51' E 004°40'0 0.2
2017-Jan-17 16:33N 51°51' E 004°40'9 8.6
2017-Jan-17 15:33N 51°49' E 004°53'3 2.8
2017-Jan-17 14:31N 51°50' E 004°58'0 0.1
2017-Jan-17 13:33N 51°50' E 004°58'8 8.0
2017-Jan-17 12:33N 51°49' E 005°11'1 0.1
2017-Jan-16 14:09N 51°49' E 005°13'0 0.0
2017-Jan-16 08:33N 51°49' E 005°13'0 0.0
2017-Jan-16 07:33N 51°49' E 005°13'0 0.0
2017-Jan-16 06:33N 51°49' E 005°13'0 0.0
2017-Jan-16 05:32N 51°49' E 005°13'0 0.0
2017-Jan-16 02:32N 51°49' E 005°13'0 0.0
2017-Jan-16 01:32N 51°49' E 005°13'0 0.0
2017-Jan-16 00:29N 51°49' E 005°13'0 0.0
2017-Jan-15 23:29N 51°49' E 005°13'0 0.0
2017-Jan-15 21:20N 51°49' E 005°13'0 0.0
2017-Jan-15 20:33N 51°49' E 005°13'0 0.0
2017-Jan-15 17:06N 51°49' E 005°13'0 0.0
2017-Jan-15 16:32N 51°49' E 005°13'0 0.0
2017-Jan-15 15:33N 51°49' E 005°13'0 0.0
2017-Jan-15 14:32N 51°49' E 005°13'0 0.0
2017-Jan-15 13:13N 51°49' E 005°13'0 0.0
2017-Jan-15 12:31N 51°49' E 005°13'0 0.0
2017-Jan-15 11:31N 51°49' E 005°13'0 0.0
2017-Jan-15 10:32N 51°49' E 005°13'0 0.0
2017-Jan-15 09:29N 51°49' E 005°13'0 0.0
2017-Jan-15 08:31N 51°49' E 005°13'0 0.0
2017-Jan-15 07:33N 51°49' E 005°13'0 0.0
2017-Jan-15 06:33N 51°49' E 005°13'0 0.0
2017-Jan-15 05:33N 51°49' E 005°13'0 0.0
2017-Jan-15 04:31N 51°49' E 005°13'0 0.0
2017-Jan-15 03:27N 51°49' E 005°13'0 0.0
2017-Jan-15 02:33N 51°49' E 005°13'0 0.0
2017-Jan-15 01:16N 51°49' E 005°13'0 0.0
2017-Jan-15 00:22N 51°49' E 005°13'0 0.0
2017-Jan-14 21:30N 51°49' E 005°13'0 0.0
2017-Jan-14 20:18N 51°49' E 005°13'0 0.0
2017-Jan-14 19:31N 51°49' E 005°13'0 0.0
2017-Jan-14 18:33N 51°49' E 005°13'0 0.0
2017-Jan-14 17:30N 51°49' E 005°13'0 0.0
2017-Jan-14 15:31N 51°49' E 005°13'0 0.0
2017-Jan-14 14:32N 51°49' E 005°13'4 4.0
2017-Jan-14 13:33N 51°49' E 005°20'9 8.9
2017-Jan-14 12:32N 51°54' E 005°32'10 9.7
2017-Jan-14 11:33N 51°53' E 005°47'7 7.2
2017-Jan-14 10:33N 51°52' E 005°59'8 8.1
2017-Jan-14 09:33N 51°50' E 006°12'8 7.9
2017-Jan-14 08:33N 51°45' E 006°22'7 6.9
2017-Jan-14 07:33N 51°40' E 006°29'7 6.6
2017-Jan-14 06:29N 51°34' E 006°36'43 2.0
2017-Jan-13 09:31N 50°54' E 006°59'5 4.8
2017-Jan-13 08:33N 50°49' E 007°01'9 8.3
2017-Jan-13 07:26N 50°42' E 007°10'  

Dump ship's entire track history